Terminal Aerodrome Forecast
Issued by NWS Green Bay, WI

Home | Current Version | Previous Version | Graphics & Text | Print | Product List | Glossary On
Versions: 1 2 3 4 5 6 7 8 9 10 11 12 13 14 15 16 17 18 19 20 21 22 23 24 25 26 27 28 29 30 31 32 33 34 35 36 37 38 39 40
000
FTUS43 KGRB 200700 AAA
TAFGRB
TAF AMD
KGRB 200746Z 2008/2106 23012G18KT P6SM SCT025 BKN040 WS015/25040KT
      TEMPO 2008/2010 3SM TSRA BR BKN025CB
     FM201400 24011G18KT P6SM SCT015 BKN100
     FM201900 28011G18KT P6SM SCT030 SCT100=

USA.gov is the U.S. government's official web portal to all federal, state and local government web resources and services.